Briefing drone pour Chevigny-saint-sauveur

Rechercher une autre localisation

Conditions de vol :


Nous sommes le : Mardi 30 novembre 2021
Il est 17:53 UTC (18:53 LT)

Lever de soleil : 06:38 UTC (07:38 LT)
Coucher de soleil : 16:17 UTC (17:17 LT)

Météo

L'essentiel des conditions de vol

VIGILANCE MÉTÉO FRANCE - Côte-dOr (21)
Pas de vigilances particulieres
METAR de LFSD
LFSD 301730Z AUTO 20009KT 9999 OVC019/// ///TCU 04/00 Q1021

Date d'émission: 30/11/2021
Heure d'émission: 17:30 UTC
Vent: 200° pour 9 KT (17 km/h)
Visibilité horizontale: > 10 km
Plafond :
- Couvert à 1900ft (579m)
Température: 4 °C
Point de rosée: 0 °C
Humidité: 75%
Pression (QNH): 1021 hPa
TAF de LFSD
LFSD 010600Z 0100/0124 CNL

Conditions prévues :

Heure d'émission : Bulletin éffectué le 01 à 00:00 UTC
Prévision : Valide du 01 a 00:00 UTC au 01 a 23:59 UTC
Nuages : à 0ft (0 m)
WEBCAM POUR CHEVIGNY-SAINT-SAUVEUR

Réglementation

Voler en sécurité

CARTES AERONAUTIQUE 1/500.000
CARTES VAC (LFSD)
SUP AIP




Chargement des AIP...
NOTAM (CHEVIGNY-SAINT-SAUVEUR + Terrain à proximité / FIR )




Chargement des NOTAMS...
CONTACT PREFECTURE 21
Côte-dOr (21) : pref-drone@cote-dor.gouv.fr


Avertissement : Les données mises à disposition sont indicatives. Oxygène Drone ne pourra être tenu responsable de dégâts causés aux biens et aux personnes.